sensor_id;sensor_type;location;lat;lon;timestamp;P1;durP1;ratioP1;P2;durP2;ratioP2
6392;SDS011;3229;42.674;23.282;2022-11-28T00:00:28;7.63;;;5.93;;
6392;SDS011;3229;42.674;23.282;2022-11-28T00:02:55;5.43;;;4.93;;
6392;SDS011;3229;42.674;23.282;2022-11-28T00:05:23;6.90;;;5.27;;
6392;SDS011;3229;42.674;23.282;2022-11-28T00:07:50;7.97;;;5.80;;
6392;SDS011;3229;42.674;23.282;2022-11-28T00:10:17;6.87;;;5.07;;
6392;SDS011;3229;42.674;23.282;2022-11-28T00:12:44;6.07;;;5.47;;
6392;SDS011;3229;42.674;23.282;2022-11-28T00:15:11;7.53;;;5.70;;
6392;SDS011;3229;42.674;23.282;2022-11-28T00:17:38;7.13;;;5.80;;
6392;SDS011;3229;42.674;23.282;2022-11-28T00:20:05;7.40;;;5.80;;
6392;SDS011;3229;42.674;23.282;2022-11-28T00:22:34;7.30;;;5.53;;
6392;SDS011;3229;42.674;23.282;2022-11-28T00:25:01;6.17;;;5.37;;
6392;SDS011;3229;42.674;23.282;2022-11-28T00:27:28;7.23;;;5.70;;
6392;SDS011;3229;42.674;23.282;2022-11-28T00:29:55;6.33;;;5.63;;
6392;SDS011;3229;42.674;23.282;2022-11-28T00:32:21;5.93;;;5.17;;
6392;SDS011;3229;42.674;23.282;2022-11-28T00:34:48;7.73;;;5.00;;
6392;SDS011;3229;42.674;23.282;2022-11-28T00:37:15;7.37;;;5.73;;
6392;SDS011;3229;42.674;23.282;2022-11-28T00:39:43;7.83;;;6.07;;
6392;SDS011;3229;42.674;23.282;2022-11-28T00:42:10;6.73;;;6.03;;
6392;SDS011;3229;42.674;23.282;2022-11-28T00:44:37;7.97;;;5.57;;
6392;SDS011;3229;42.674;23.282;2022-11-28T00:47:04;5.93;;;5.17;;
6392;SDS011;3229;42.674;23.282;2022-11-28T00:49:31;6.60;;;5.60;;
6392;SDS011;3229;42.674;23.282;2022-11-28T00:51:57;6.93;;;5.27;;
6392;SDS011;3229;42.674;23.282;2022-11-28T00:54:24;6.13;;;4.80;;
6392;SDS011;3229;42.674;23.282;2022-11-28T00:56:52;7.23;;;5.40;;
6392;SDS011;3229;42.674;23.282;2022-11-28T00:59:19;6.17;;;5.40;;
6392;SDS011;3229;42.674;23.282;2022-11-28T01:01:46;8.00;;;5.00;;
6392;SDS011;3229;42.674;23.282;2022-11-28T01:04:14;6.50;;;5.00;;
6392;SDS011;3229;42.674;23.282;2022-11-28T01:06:43;5.80;;;5.00;;
6392;SDS011;3229;42.674;23.282;2022-11-28T01:09:12;5.93;;;5.03;;
6392;SDS011;3229;42.674;23.282;2022-11-28T01:11:41;5.97;;;5.03;;
6392;SDS011;3229;42.674;23.282;2022-11-28T01:14:10;5.63;;;5.10;;
6392;SDS011;3229;42.674;23.282;2022-11-28T01:16:38;6.60;;;4.47;;
6392;SDS011;3229;42.674;23.282;2022-11-28T01:19:05;5.87;;;4.80;;
6392;SDS011;3229;42.674;23.282;2022-11-28T01:21:32;5.13;;;4.63;;
6392;SDS011;3229;42.674;23.282;2022-11-28T01:23:59;5.60;;;4.50;;
6392;SDS011;3229;42.674;23.282;2022-11-28T01:26:26;5.20;;;4.70;;
6392;SDS011;3229;42.674;23.282;2022-11-28T01:28:55;4.37;;;3.97;;
6392;SDS011;3229;42.674;23.282;2022-11-28T01:31:25;5.47;;;4.43;;
6392;SDS011;3229;42.674;23.282;2022-11-28T01:33:54;5.00;;;4.43;;
6392;SDS011;3229;42.674;23.282;2022-11-28T01:36:21;5.17;;;4.23;;
6392;SDS011;3229;42.674;23.282;2022-11-28T01:38:49;6.03;;;4.23;;
6392;SDS011;3229;42.674;23.282;2022-11-28T01:41:17;5.70;;;4.80;;
6392;SDS011;3229;42.674;23.282;2022-11-28T01:43:56;4.53;;;4.13;;
6392;SDS011;3229;42.674;23.282;2022-11-28T01:46:30;7.60;;;4.57;;
6392;SDS011;3229;42.674;23.282;2022-11-28T01:49:02;4.30;;;3.90;;
6392;SDS011;3229;42.674;23.282;2022-11-28T01:51:32;5.20;;;3.77;;
6392;SDS011;3229;42.674;23.282;2022-11-28T01:54:01;5.10;;;4.60;;
6392;SDS011;3229;42.674;23.282;2022-11-28T01:56:30;5.10;;;4.40;;
6392;SDS011;3229;42.674;23.282;2022-11-28T01:59:03;4.33;;;3.93;;
6392;SDS011;3229;42.674;23.282;2022-11-28T02:01:36;4.53;;;4.07;;
6392;SDS011;3229;42.674;23.282;2022-11-28T02:04:04;4.47;;;4.07;;
6392;SDS011;3229;42.674;23.282;2022-11-28T02:06:32;4.60;;;4.20;;
6392;SDS011;3229;42.674;23.282;2022-11-28T02:08:59;4.57;;;4.03;;
6392;SDS011;3229;42.674;23.282;2022-11-28T02:11:35;4.23;;;3.63;;
6392;SDS011;3229;42.674;23.282;2022-11-28T02:14:23;4.30;;;3.90;;
6392;SDS011;3229;42.674;23.282;2022-11-28T02:17:06;3.87;;;3.43;;
6392;SDS011;3229;42.674;23.282;2022-11-28T02:22:43;4.20;;;3.73;;
6392;SDS011;3229;42.674;23.282;2022-11-28T02:25:25;4.10;;;3.70;;
6392;SDS011;3229;42.674;23.282;2022-11-28T02:28:26;3.63;;;3.30;;
6392;SDS011;3229;42.674;23.282;2022-11-28T02:31:18;3.93;;;3.40;;
6392;SDS011;3229;42.674;23.282;2022-11-28T02:33:59;4.53;;;3.50;;
6392;SDS011;3229;42.674;23.282;2022-11-28T02:36:33;4.03;;;3.50;;
6392;SDS011;3229;42.674;23.282;2022-11-28T02:39:08;5.20;;;4.10;;
6392;SDS011;3229;42.674;23.282;2022-11-28T02:41:41;3.33;;;3.10;;
6392;SDS011;3229;42.674;23.282;2022-11-28T02:44:12;4.17;;;3.43;;
6392;SDS011;3229;42.674;23.282;2022-11-28T02:46:43;3.73;;;3.37;;
6392;SDS011;3229;42.674;23.282;2022-11-28T02:49:25;4.77;;;3.93;;
6392;SDS011;3229;42.674;23.282;2022-11-28T02:51:57;3.23;;;3.00;;
6392;SDS011;3229;42.674;23.282;2022-11-28T02:54:28;4.20;;;3.80;;
6392;SDS011;3229;42.674;23.282;2022-11-28T02:56:58;3.10;;;2.90;;
6392;SDS011;3229;42.674;23.282;2022-11-28T02:59:30;3.20;;;2.93;;
6392;SDS011;3229;42.674;23.282;2022-11-28T03:02:12;3.73;;;3.43;;
6392;SDS011;3229;42.674;23.282;2022-11-28T03:04:48;3.40;;;3.10;;
6392;SDS011;3229;42.674;23.282;2022-11-28T03:07:24;3.13;;;2.90;;
6392;SDS011;3229;42.674;23.282;2022-11-28T03:10:08;3.50;;;3.20;;
6392;SDS011;3229;42.674;23.282;2022-11-28T03:12:46;3.57;;;3.30;;
6392;SDS011;3229;42.674;23.282;2022-11-28T03:15:21;3.43;;;3.23;;
6392;SDS011;3229;42.674;23.282;2022-11-28T03:17:58;3.17;;;2.90;;
6392;SDS011;3229;42.674;23.282;2022-11-28T03:20:36;3.67;;;3.33;;
6392;SDS011;3229;42.674;23.282;2022-11-28T03:23:12;3.40;;;3.10;;
6392;SDS011;3229;42.674;23.282;2022-11-28T03:25:45;3.10;;;2.90;;
6392;SDS011;3229;42.674;23.282;2022-11-28T03:28:21;3.00;;;2.73;;
6392;SDS011;3229;42.674;23.282;2022-11-28T03:30:54;2.90;;;2.70;;
6392;SDS011;3229;42.674;23.282;2022-11-28T03:33:26;3.50;;;3.20;;
6392;SDS011;3229;42.674;23.282;2022-11-28T03:35:58;3.10;;;2.80;;
6392;SDS011;3229;42.674;23.282;2022-11-28T03:38:30;3.00;;;2.70;;
6392;SDS011;3229;42.674;23.282;2022-11-28T03:41:02;2.80;;;2.50;;
6392;SDS011;3229;42.674;23.282;2022-11-28T03:43:39;3.07;;;2.77;;
6392;SDS011;3229;42.674;23.282;2022-11-28T03:46:10;3.53;;;3.20;;
6392;SDS011;3229;42.674;23.282;2022-11-28T03:48:42;3.10;;;2.90;;
6392;SDS011;3229;42.674;23.282;2022-11-28T03:51:13;2.70;;;2.50;;
6392;SDS011;3229;42.674;23.282;2022-11-28T03:53:46;2.97;;;2.67;;
6392;SDS011;3229;42.674;23.282;2022-11-28T03:56:17;2.63;;;2.43;;
6392;SDS011;3229;42.674;23.282;2022-11-28T03:58:48;3.00;;;2.80;;
6392;SDS011;3229;42.674;23.282;2022-11-28T04:01:23;3.23;;;3.00;;
6392;SDS011;3229;42.674;23.282;2022-11-28T04:03:57;2.60;;;2.40;;
6392;SDS011;3229;42.674;23.282;2022-11-28T04:06:34;2.90;;;2.70;;
6392;SDS011;3229;42.674;23.282;2022-11-28T04:09:09;2.80;;;2.60;;
6392;SDS011;3229;42.674;23.282;2022-11-28T04:11:41;2.37;;;2.27;;
6392;SDS011;3229;42.674;23.282;2022-11-28T04:14:15;3.13;;;2.93;;
6392;SDS011;3229;42.674;23.282;2022-11-28T04:16:48;2.80;;;2.60;;
6392;SDS011;3229;42.674;23.282;2022-11-28T04:19:22;2.97;;;2.67;;
6392;SDS011;3229;42.674;23.282;2022-11-28T04:21:57;2.50;;;2.30;;
6392;SDS011;3229;42.674;23.282;2022-11-28T04:24:28;3.13;;;2.87;;
6392;SDS011;3229;42.674;23.282;2022-11-28T04:26:59;2.40;;;2.20;;
6392;SDS011;3229;42.674;23.282;2022-11-28T04:29:34;2.60;;;2.40;;
6392;SDS011;3229;42.674;23.282;2022-11-28T04:32:04;2.80;;;2.60;;
6392;SDS011;3229;42.674;23.282;2022-11-28T04:34:34;4.87;;;2.80;;
6392;SDS011;3229;42.674;23.282;2022-11-28T04:37:03;5.33;;;2.77;;
6392;SDS011;3229;42.674;23.282;2022-11-28T04:39:35;2.37;;;2.17;;
6392;SDS011;3229;42.674;23.282;2022-11-28T04:42:04;2.73;;;2.53;;
6392;SDS011;3229;42.674;23.282;2022-11-28T04:44:36;3.70;;;2.30;;
6392;SDS011;3229;42.674;23.282;2022-11-28T04:47:08;2.50;;;2.30;;
6392;SDS011;3229;42.674;23.282;2022-11-28T04:49:36;2.37;;;2.17;;
6392;SDS011;3229;42.674;23.282;2022-11-28T04:52:06;2.67;;;2.47;;
6392;SDS011;3229;42.674;23.282;2022-11-28T04:54:39;2.00;;;1.90;;
6392;SDS011;3229;42.674;23.282;2022-11-28T04:57:11;2.00;;;1.90;;
6392;SDS011;3229;42.674;23.282;2022-11-28T04:59:42;2.53;;;2.33;;
6392;SDS011;3229;42.674;23.282;2022-11-28T05:02:10;2.27;;;2.17;;
6392;SDS011;3229;42.674;23.282;2022-11-28T05:04:40;2.33;;;2.20;;
6392;SDS011;3229;42.674;23.282;2022-11-28T05:07:10;2.50;;;2.30;;
6392;SDS011;3229;42.674;23.282;2022-11-28T05:09:37;2.50;;;2.30;;
6392;SDS011;3229;42.674;23.282;2022-11-28T05:12:04;2.30;;;2.20;;
6392;SDS011;3229;42.674;23.282;2022-11-28T05:14:31;2.30;;;2.20;;
6392;SDS011;3229;42.674;23.282;2022-11-28T05:16:58;2.63;;;2.43;;
6392;SDS011;3229;42.674;23.282;2022-11-28T05:19:26;2.10;;;2.00;;
6392;SDS011;3229;42.674;23.282;2022-11-28T05:21:53;2.37;;;2.17;;
6392;SDS011;3229;42.674;23.282;2022-11-28T05:24:21;2.20;;;2.10;;
6392;SDS011;3229;42.674;23.282;2022-11-28T05:26:48;2.53;;;2.40;;
6392;SDS011;3229;42.674;23.282;2022-11-28T05:29:15;3.40;;;1.80;;
6392;SDS011;3229;42.674;23.282;2022-11-28T05:31:42;5.43;;;2.37;;
6392;SDS011;3229;42.674;23.282;2022-11-28T05:34:09;3.40;;;2.10;;
6392;SDS011;3229;42.674;23.282;2022-11-28T05:36:36;1.90;;;1.80;;
6392;SDS011;3229;42.674;23.282;2022-11-28T05:39:02;6.63;;;2.30;;
6392;SDS011;3229;42.674;23.282;2022-11-28T05:41:31;3.37;;;1.80;;
6392;SDS011;3229;42.674;23.282;2022-11-28T05:43:58;2.67;;;1.80;;
6392;SDS011;3229;42.674;23.282;2022-11-28T05:46:27;3.70;;;2.07;;
6392;SDS011;3229;42.674;23.282;2022-11-28T05:48:54;2.00;;;1.90;;
6392;SDS011;3229;42.674;23.282;2022-11-28T05:51:22;2.97;;;2.00;;
6392;SDS011;3229;42.674;23.282;2022-11-28T05:53:49;2.10;;;2.00;;
6392;SDS011;3229;42.674;23.282;2022-11-28T05:56:17;2.27;;;2.10;;
6392;SDS011;3229;42.674;23.282;2022-11-28T05:58:48;2.93;;;2.10;;
6392;SDS011;3229;42.674;23.282;2022-11-28T06:01:16;2.30;;;2.00;;
6392;SDS011;3229;42.674;23.282;2022-11-28T06:03:44;2.47;;;2.10;;
6392;SDS011;3229;42.674;23.282;2022-11-28T06:06:12;1.93;;;1.83;;
6392;SDS011;3229;42.674;23.282;2022-11-28T06:08:40;1.97;;;1.87;;
6392;SDS011;3229;42.674;23.282;2022-11-28T06:11:08;2.20;;;2.00;;
6392;SDS011;3229;42.674;23.282;2022-11-28T06:13:35;2.43;;;2.33;;
6392;SDS011;3229;42.674;23.282;2022-11-28T06:16:07;2.27;;;2.07;;
6392;SDS011;3229;42.674;23.282;2022-11-28T06:18:34;2.00;;;1.90;;
6392;SDS011;3229;42.674;23.282;2022-11-28T06:21:01;2.30;;;2.10;;
6392;SDS011;3229;42.674;23.282;2022-11-28T06:23:41;2.40;;;2.20;;
6392;SDS011;3229;42.674;23.282;2022-11-28T06:26:10;2.60;;;2.40;;
6392;SDS011;3229;42.674;23.282;2022-11-28T06:28:40;2.50;;;2.30;;
6392;SDS011;3229;42.674;23.282;2022-11-28T06:31:09;2.73;;;2.53;;
6392;SDS011;3229;42.674;23.282;2022-11-28T06:33:37;2.70;;;2.50;;
6392;SDS011;3229;42.674;23.282;2022-11-28T06:36:04;3.00;;;2.80;;
6392;SDS011;3229;42.674;23.282;2022-11-28T06:38:32;2.77;;;2.33;;
6392;SDS011;3229;42.674;23.282;2022-11-28T06:41:02;3.53;;;2.60;;
6392;SDS011;3229;42.674;23.282;2022-11-28T06:43:30;2.43;;;2.23;;
6392;SDS011;3229;42.674;23.282;2022-11-28T06:45:58;3.20;;;2.90;;
6392;SDS011;3229;42.674;23.282;2022-11-28T06:48:26;2.73;;;2.53;;
6392;SDS011;3229;42.674;23.282;2022-11-28T06:50:59;2.70;;;2.50;;
6392;SDS011;3229;42.674;23.282;2022-11-28T06:53:27;2.80;;;2.60;;
6392;SDS011;3229;42.674;23.282;2022-11-28T06:55:54;2.80;;;2.60;;
6392;SDS011;3229;42.674;23.282;2022-11-28T06:58:21;2.80;;;2.60;;
6392;SDS011;3229;42.674;23.282;2022-11-28T07:00:48;2.80;;;2.60;;
6392;SDS011;3229;42.674;23.282;2022-11-28T07:03:15;3.10;;;2.80;;
6392;SDS011;3229;42.674;23.282;2022-11-28T07:05:43;2.70;;;2.50;;
6392;SDS011;3229;42.674;23.282;2022-11-28T07:08:10;2.80;;;2.43;;
6392;SDS011;3229;42.674;23.282;2022-11-28T07:10:37;2.97;;;2.77;;
6392;SDS011;3229;42.674;23.282;2022-11-28T07:13:04;2.70;;;2.50;;
6392;SDS011;3229;42.674;23.282;2022-11-28T07:15:32;2.77;;;2.57;;
6392;SDS011;3229;42.674;23.282;2022-11-28T07:17:59;3.97;;;3.37;;
6392;SDS011;3229;42.674;23.282;2022-11-28T07:20:26;2.90;;;2.70;;
6392;SDS011;3229;42.674;23.282;2022-11-28T07:22:54;3.20;;;2.87;;
6392;SDS011;3229;42.674;23.282;2022-11-28T07:25:21;3.47;;;3.17;;
6392;SDS011;3229;42.674;23.282;2022-11-28T07:27:48;3.43;;;3.13;;
6392;SDS011;3229;42.674;23.282;2022-11-28T07:30:15;3.50;;;3.20;;
6392;SDS011;3229;42.674;23.282;2022-11-28T07:32:44;3.33;;;3.03;;
6392;SDS011;3229;42.674;23.282;2022-11-28T07:35:11;3.07;;;2.77;;
6392;SDS011;3229;42.674;23.282;2022-11-28T07:37:37;3.53;;;3.23;;
6392;SDS011;3229;42.674;23.282;2022-11-28T07:40:06;3.87;;;3.57;;
6392;SDS011;3229;42.674;23.282;2022-11-28T07:42:33;3.27;;;2.97;;
6392;SDS011;3229;42.674;23.282;2022-11-28T07:45:01;4.63;;;3.70;;
6392;SDS011;3229;42.674;23.282;2022-11-28T07:47:27;3.47;;;3.13;;
6392;SDS011;3229;42.674;23.282;2022-11-28T07:49:54;4.07;;;3.67;;
6392;SDS011;3229;42.674;23.282;2022-11-28T07:52:21;4.90;;;3.30;;
6392;SDS011;3229;42.674;23.282;2022-11-28T07:54:48;3.40;;;3.10;;
6392;SDS011;3229;42.674;23.282;2022-11-28T07:57:17;3.40;;;2.50;;
6392;SDS011;3229;42.674;23.282;2022-11-28T07:59:44;4.10;;;3.13;;
6392;SDS011;3229;42.674;23.282;2022-11-28T08:02:20;3.43;;;2.70;;
6392;SDS011;3229;42.674;23.282;2022-11-28T08:04:47;6.10;;;3.50;;
6392;SDS011;3229;42.674;23.282;2022-11-28T08:07:14;4.00;;;3.50;;
6392;SDS011;3229;42.674;23.282;2022-11-28T08:09:41;4.17;;;3.57;;
6392;SDS011;3229;42.674;23.282;2022-11-28T08:12:08;4.17;;;3.43;;
6392;SDS011;3229;42.674;23.282;2022-11-28T08:14:36;4.17;;;3.77;;
6392;SDS011;3229;42.674;23.282;2022-11-28T08:17:03;4.33;;;3.57;;
6392;SDS011;3229;42.674;23.282;2022-11-28T08:19:30;4.43;;;4.03;;
6392;SDS011;3229;42.674;23.282;2022-11-28T08:21:56;4.10;;;3.70;;
6392;SDS011;3229;42.674;23.282;2022-11-28T08:24:23;6.77;;;3.90;;
6392;SDS011;3229;42.674;23.282;2022-11-28T08:26:50;5.80;;;4.43;;
6392;SDS011;3229;42.674;23.282;2022-11-28T08:29:17;5.13;;;4.63;;
6392;SDS011;3229;42.674;23.282;2022-11-28T08:31:45;5.43;;;4.17;;
6392;SDS011;3229;42.674;23.282;2022-11-28T08:34:12;4.93;;;4.20;;
6392;SDS011;3229;42.674;23.282;2022-11-28T08:36:39;4.97;;;4.20;;
6392;SDS011;3229;42.674;23.282;2022-11-28T08:39:07;6.40;;;4.53;;
6392;SDS011;3229;42.674;23.282;2022-11-28T08:41:35;5.07;;;4.57;;
6392;SDS011;3229;42.674;23.282;2022-11-28T08:44:02;5.67;;;4.70;;
6392;SDS011;3229;42.674;23.282;2022-11-28T08:46:30;5.43;;;4.37;;
6392;SDS011;3229;42.674;23.282;2022-11-28T08:48:58;4.50;;;4.10;;
6392;SDS011;3229;42.674;23.282;2022-11-28T08:51:25;4.60;;;3.83;;
6392;SDS011;3229;42.674;23.282;2022-11-28T08:53:56;4.90;;;4.40;;
6392;SDS011;3229;42.674;23.282;2022-11-28T08:56:24;4.50;;;4.10;;
6392;SDS011;3229;42.674;23.282;2022-11-28T08:58:51;4.70;;;4.23;;
6392;SDS011;3229;42.674;23.282;2022-11-28T09:01:18;6.27;;;4.43;;
6392;SDS011;3229;42.674;23.282;2022-11-28T09:03:47;4.13;;;3.73;;
6392;SDS011;3229;42.674;23.282;2022-11-28T09:06:16;5.70;;;4.20;;
6392;SDS011;3229;42.674;23.282;2022-11-28T09:08:46;4.70;;;4.30;;
6392;SDS011;3229;42.674;23.282;2022-11-28T09:11:15;4.77;;;4.10;;
6392;SDS011;3229;42.674;23.282;2022-11-28T09:13:43;4.97;;;3.90;;
6392;SDS011;3229;42.674;23.282;2022-11-28T09:16:11;4.20;;;3.80;;
6392;SDS011;3229;42.674;23.282;2022-11-28T09:18:38;5.63;;;4.40;;
6392;SDS011;3229;42.674;23.282;2022-11-28T09:21:06;4.53;;;3.80;;
6392;SDS011;3229;42.674;23.282;2022-11-28T09:23:36;5.67;;;4.30;;
6392;SDS011;3229;42.674;23.282;2022-11-28T09:26:06;5.47;;;4.67;;
6392;SDS011;3229;42.674;23.282;2022-11-28T09:28:34;4.77;;;3.97;;
6392;SDS011;3229;42.674;23.282;2022-11-28T09:31:01;4.90;;;4.40;;
6392;SDS011;3229;42.674;23.282;2022-11-28T09:33:29;4.93;;;4.20;;
6392;SDS011;3229;42.674;23.282;2022-11-28T09:35:57;4.40;;;4.00;;
6392;SDS011;3229;42.674;23.282;2022-11-28T09:38:24;4.73;;;4.33;;
6392;SDS011;3229;42.674;23.282;2022-11-28T09:40:52;5.17;;;4.43;;
6392;SDS011;3229;42.674;23.282;2022-11-28T09:43:20;4.60;;;4.00;;
6392;SDS011;3229;42.674;23.282;2022-11-28T09:45:53;4.93;;;4.43;;
6392;SDS011;3229;42.674;23.282;2022-11-28T09:48:23;6.10;;;3.93;;
6392;SDS011;3229;42.674;23.282;2022-11-28T09:50:54;4.40;;;4.00;;
6392;SDS011;3229;42.674;23.282;2022-11-28T09:53:25;4.43;;;3.80;;
6392;SDS011;3229;42.674;23.282;2022-11-28T09:55:58;3.43;;;3.13;;
6392;SDS011;3229;42.674;23.282;2022-11-28T09:58:30;4.00;;;3.60;;
6392;SDS011;3229;42.674;23.282;2022-11-28T10:01:06;4.07;;;3.63;;
6392;SDS011;3229;42.674;23.282;2022-11-28T10:03:42;4.57;;;3.63;;
6392;SDS011;3229;42.674;23.282;2022-11-28T10:06:17;3.50;;;3.20;;
6392;SDS011;3229;42.674;23.282;2022-11-28T10:09:01;3.90;;;3.53;;
6392;SDS011;3229;42.674;23.282;2022-11-28T10:11:51;4.97;;;3.07;;
6392;SDS011;3229;42.674;23.282;2022-11-28T10:14:46;3.60;;;3.10;;
6392;SDS011;3229;42.674;23.282;2022-11-28T10:17:43;3.53;;;3.23;;
6392;SDS011;3229;42.674;23.282;2022-11-28T10:20:17;3.27;;;3.00;;
6392;SDS011;3229;42.674;23.282;2022-11-28T10:22:47;3.77;;;3.10;;
6392;SDS011;3229;42.674;23.282;2022-11-28T10:25:18;2.90;;;2.70;;
6392;SDS011;3229;42.674;23.282;2022-11-28T10:27:49;3.20;;;2.90;;
6392;SDS011;3229;42.674;23.282;2022-11-28T10:30:20;3.73;;;3.20;;
6392;SDS011;3229;42.674;23.282;2022-11-28T10:32:57;3.83;;;2.90;;
6392;SDS011;3229;42.674;23.282;2022-11-28T10:35:31;3.03;;;2.73;;
6392;SDS011;3229;42.674;23.282;2022-11-28T10:38:07;3.27;;;3.00;;
6392;SDS011;3229;42.674;23.282;2022-11-28T10:40:39;6.93;;;2.70;;
6392;SDS011;3229;42.674;23.282;2022-11-28T10:43:15;3.00;;;2.40;;
6392;SDS011;3229;42.674;23.282;2022-11-28T10:45:55;4.70;;;2.80;;
6392;SDS011;3229;42.674;23.282;2022-11-28T10:48:34;2.50;;;2.40;;
6392;SDS011;3229;42.674;23.282;2022-11-28T10:51:15;2.93;;;2.73;;
6392;SDS011;3229;42.674;23.282;2022-11-28T10:53:51;3.40;;;2.87;;
6392;SDS011;3229;42.674;23.282;2022-11-28T10:56:31;3.07;;;2.80;;
6392;SDS011;3229;42.674;23.282;2022-11-28T10:59:09;2.53;;;2.33;;
6392;SDS011;3229;42.674;23.282;2022-11-28T11:01:46;3.03;;;2.77;;
6392;SDS011;3229;42.674;23.282;2022-11-28T11:04:16;3.50;;;3.20;;
6392;SDS011;3229;42.674;23.282;2022-11-28T11:06:46;3.10;;;2.80;;
6392;SDS011;3229;42.674;23.282;2022-11-28T11:09:27;2.80;;;2.60;;
6392;SDS011;3229;42.674;23.282;2022-11-28T11:11:55;3.10;;;2.80;;
6392;SDS011;3229;42.674;23.282;2022-11-28T11:14:33;5.50;;;3.23;;
6392;SDS011;3229;42.674;23.282;2022-11-28T11:17:04;3.47;;;2.70;;
6392;SDS011;3229;42.674;23.282;2022-11-28T11:19:32;3.00;;;2.70;;
6392;SDS011;3229;42.674;23.282;2022-11-28T11:22:02;3.30;;;3.00;;
6392;SDS011;3229;42.674;23.282;2022-11-28T11:24:30;3.50;;;3.20;;
6392;SDS011;3229;42.674;23.282;2022-11-28T11:27:05;3.30;;;3.00;;
6392;SDS011;3229;42.674;23.282;2022-11-28T11:29:41;3.03;;;2.47;;
6392;SDS011;3229;42.674;23.282;2022-11-28T11:32:15;2.70;;;2.50;;
6392;SDS011;3229;42.674;23.282;2022-11-28T11:34:46;3.77;;;2.97;;
6392;SDS011;3229;42.674;23.282;2022-11-28T11:37:17;3.00;;;2.80;;
6392;SDS011;3229;42.674;23.282;2022-11-28T11:39:47;2.83;;;2.63;;
6392;SDS011;3229;42.674;23.282;2022-11-28T11:42:19;3.07;;;2.77;;
6392;SDS011;3229;42.674;23.282;2022-11-28T11:44:48;3.33;;;3.03;;
6392;SDS011;3229;42.674;23.282;2022-11-28T11:47:15;2.77;;;2.57;;
6392;SDS011;3229;42.674;23.282;2022-11-28T11:49:43;3.17;;;2.80;;
6392;SDS011;3229;42.674;23.282;2022-11-28T11:52:14;2.87;;;2.67;;
6392;SDS011;3229;42.674;23.282;2022-11-28T11:54:53;5.70;;;2.80;;
6392;SDS011;3229;42.674;23.282;2022-11-28T11:57:24;3.10;;;2.70;;
6392;SDS011;3229;42.674;23.282;2022-11-28T11:59:54;3.00;;;2.47;;
6392;SDS011;3229;42.674;23.282;2022-11-28T12:02:25;2.93;;;2.63;;
6392;SDS011;3229;42.674;23.282;2022-11-28T12:04:58;3.37;;;3.07;;
6392;SDS011;3229;42.674;23.282;2022-11-28T12:07:29;2.90;;;2.60;;
6392;SDS011;3229;42.674;23.282;2022-11-28T12:09:58;2.50;;;2.30;;
6392;SDS011;3229;42.674;23.282;2022-11-28T12:12:26;2.50;;;2.30;;
6392;SDS011;3229;42.674;23.282;2022-11-28T12:14:56;2.90;;;2.50;;
6392;SDS011;3229;42.674;23.282;2022-11-28T12:17:25;2.40;;;2.30;;
6392;SDS011;3229;42.674;23.282;2022-11-28T12:20:03;2.87;;;2.67;;
6392;SDS011;3229;42.674;23.282;2022-11-28T12:22:48;2.83;;;2.63;;
6392;SDS011;3229;42.674;23.282;2022-11-28T12:25:24;2.93;;;2.73;;
6392;SDS011;3229;42.674;23.282;2022-11-28T12:28:00;3.00;;;2.80;;
6392;SDS011;3229;42.674;23.282;2022-11-28T12:30:42;3.50;;;2.57;;
6392;SDS011;3229;42.674;23.282;2022-11-28T12:33:28;2.77;;;2.50;;
6392;SDS011;3229;42.674;23.282;2022-11-28T12:36:09;3.03;;;2.73;;
6392;SDS011;3229;42.674;23.282;2022-11-28T12:45:03;3.00;;;2.80;;
6392;SDS011;3229;42.674;23.282;2022-11-28T12:47:44;3.00;;;2.70;;
6392;SDS011;3229;42.674;23.282;2022-11-28T12:50:23;2.90;;;2.60;;
6392;SDS011;3229;42.674;23.282;2022-11-28T12:52:59;3.10;;;2.73;;
6392;SDS011;3229;42.674;23.282;2022-11-28T12:55:43;3.00;;;2.80;;
6392;SDS011;3229;42.674;23.282;2022-11-28T12:58:15;2.60;;;2.40;;
6392;SDS011;3229;42.674;23.282;2022-11-28T13:00:49;3.07;;;2.77;;
6392;SDS011;3229;42.674;23.282;2022-11-28T13:03:33;4.73;;;2.27;;
6392;SDS011;3229;42.674;23.282;2022-11-28T13:06:12;3.30;;;2.77;;
6392;SDS011;3229;42.674;23.282;2022-11-28T13:08:55;2.63;;;2.43;;
6392;SDS011;3229;42.674;23.282;2022-11-28T13:11:33;4.20;;;2.73;;
6392;SDS011;3229;42.674;23.282;2022-11-28T13:14:12;2.70;;;2.50;;
6392;SDS011;3229;42.674;23.282;2022-11-28T13:16:45;2.80;;;2.60;;
6392;SDS011;3229;42.674;23.282;2022-11-28T13:19:20;2.90;;;2.70;;
6392;SDS011;3229;42.674;23.282;2022-11-28T13:21:58;5.13;;;3.03;;
6392;SDS011;3229;42.674;23.282;2022-11-28T13:24:30;3.33;;;3.03;;
6392;SDS011;3229;42.674;23.282;2022-11-28T13:27:04;4.67;;;3.10;;
6392;SDS011;3229;42.674;23.282;2022-11-28T13:29:36;4.20;;;2.63;;
6392;SDS011;3229;42.674;23.282;2022-11-28T13:32:12;3.07;;;2.77;;
6392;SDS011;3229;42.674;23.282;2022-11-28T13:34:45;3.20;;;2.90;;
6392;SDS011;3229;42.674;23.282;2022-11-28T13:37:14;2.93;;;2.73;;
6392;SDS011;3229;42.674;23.282;2022-11-28T13:39:47;3.67;;;2.87;;
6392;SDS011;3229;42.674;23.282;2022-11-28T13:42:20;3.23;;;2.97;;
6392;SDS011;3229;42.674;23.282;2022-11-28T13:44:56;2.90;;;2.70;;
6392;SDS011;3229;42.674;23.282;2022-11-28T13:47:27;3.17;;;2.90;;
6392;SDS011;3229;42.674;23.282;2022-11-28T13:53:00;3.50;;;3.10;;
6392;SDS011;3229;42.674;23.282;2022-11-28T13:55:39;3.50;;;3.20;;
6392;SDS011;3229;42.674;23.282;2022-11-28T13:58:22;4.00;;;3.00;;
6392;SDS011;3229;42.674;23.282;2022-11-28T14:01:07;3.23;;;2.93;;
6392;SDS011;3229;42.674;23.282;2022-11-28T14:03:42;3.13;;;2.93;;
6392;SDS011;3229;42.674;23.282;2022-11-28T14:06:13;3.83;;;3.30;;
6392;SDS011;3229;42.674;23.282;2022-11-28T14:08:45;3.47;;;3.17;;
6392;SDS011;3229;42.674;23.282;2022-11-28T14:11:31;4.07;;;3.50;;
6392;SDS011;3229;42.674;23.282;2022-11-28T14:14:23;3.10;;;2.80;;
6392;SDS011;3229;42.674;23.282;2022-11-28T14:17:03;3.77;;;3.17;;
6392;SDS011;3229;42.674;23.282;2022-11-28T14:19:46;3.53;;;3.23;;
6392;SDS011;3229;42.674;23.282;2022-11-28T14:22:29;3.33;;;2.93;;
6392;SDS011;3229;42.674;23.282;2022-11-28T14:25:07;3.37;;;3.07;;
6392;SDS011;3229;42.674;23.282;2022-11-28T14:27:45;4.60;;;3.20;;
6392;SDS011;3229;42.674;23.282;2022-11-28T14:30:24;3.30;;;3.00;;
6392;SDS011;3229;42.674;23.282;2022-11-28T14:32:56;3.80;;;3.17;;
6392;SDS011;3229;42.674;23.282;2022-11-28T14:38:44;6.97;;;4.03;;
6392;SDS011;3229;42.674;23.282;2022-11-28T14:41:12;6.60;;;3.80;;
6392;SDS011;3229;42.674;23.282;2022-11-28T14:43:40;6.17;;;3.97;;
6392;SDS011;3229;42.674;23.282;2022-11-28T14:54:52;3.43;;;3.13;;
6392;SDS011;3229;42.674;23.282;2022-11-28T14:57:23;5.50;;;3.47;;
6392;SDS011;3229;42.674;23.282;2022-11-28T14:59:52;3.97;;;3.20;;
6392;SDS011;3229;42.674;23.282;2022-11-28T15:08:14;4.03;;;3.40;;
6392;SDS011;3229;42.674;23.282;2022-11-28T15:10:56;4.23;;;3.73;;
6392;SDS011;3229;42.674;23.282;2022-11-28T15:13:38;4.23;;;3.60;;
6392;SDS011;3229;42.674;23.282;2022-11-28T15:16:15;3.93;;;3.50;;
6392;SDS011;3229;42.674;23.282;2022-11-28T15:18:45;6.53;;;3.53;;
6392;SDS011;3229;42.674;23.282;2022-11-28T15:21:14;4.53;;;3.53;;
6392;SDS011;3229;42.674;23.282;2022-11-28T15:23:43;4.23;;;3.30;;
6392;SDS011;3229;42.674;23.282;2022-11-28T15:26:18;4.77;;;3.47;;
6392;SDS011;3229;42.674;23.282;2022-11-28T15:28:46;3.87;;;3.53;;
6392;SDS011;3229;42.674;23.282;2022-11-28T15:31:18;3.80;;;3.20;;
6392;SDS011;3229;42.674;23.282;2022-11-28T15:33:47;3.40;;;3.10;;
6392;SDS011;3229;42.674;23.282;2022-11-28T15:36:19;3.67;;;3.37;;
6392;SDS011;3229;42.674;23.282;2022-11-28T15:38:51;3.37;;;3.00;;
6392;SDS011;3229;42.674;23.282;2022-11-28T15:41:22;3.87;;;3.33;;
6392;SDS011;3229;42.674;23.282;2022-11-28T15:43:58;4.13;;;3.40;;
6392;SDS011;3229;42.674;23.282;2022-11-28T15:46:34;3.57;;;3.10;;
6392;SDS011;3229;42.674;23.282;2022-11-28T15:49:02;2.90;;;2.70;;
6392;SDS011;3229;42.674;23.282;2022-11-28T15:51:32;6.47;;;3.90;;
6392;SDS011;3229;42.674;23.282;2022-11-28T15:54:00;4.87;;;3.23;;
6392;SDS011;3229;42.674;23.282;2022-11-28T15:56:30;3.47;;;3.17;;